• Join FlightAware (Why Join?)
  • Login
  • US Flag 
02:56AM EDT


 

Airport Tracker/Info


-or-


 

Live Flight TrackerFlight Track Log ✈ ASQ5685 ✈ 28-Apr-2013 ✈ KBTV - KIAD

Flight Track Log - Related Links

Times and Time Zones

All times are in EDT time to prevent confusion due to time zone crossing. See the ASQ5685 flight status page for this flight to view local times or setup timezone preferences in your user account.

Time Position Orientation Groundspeed Altitude Reporting Facility
EDT Latitude Longitude Course Direction KTS MPH feet Rate Location/Type
03:21PM 44.1927 -73.2496 196° South  Level FlightAware Approximate
03:21PM 44.3006 -73.1797 195° South 270 311 9,400  Level Boston Center
03:22PM 44.1017 -73.2860 196° South  Level FlightAware Approximate
03:22PM 44.2192 -73.2106 195° South 296 341 11,300  Level Boston Center
03:23PM 44.0107 -73.3224 196° South  Level FlightAware Approximate
03:23PM 44.1314 -73.2469 197° South 327 376 13,900  Level Boston Center
03:24PM 43.9197 -73.3588 196° South  Level FlightAware Approximate
03:24PM 44.0353 -73.2861 196° South 350 403 16,000  Level Boston Center
03:25PM 43.8283 -73.3932 195° South  Level FlightAware Approximate
03:25PM 43.9369 -73.3281 197° South 370 426 17,700  Level Boston Center
03:26PM 43.7368 -73.4269 195° South  Level FlightAware Approximate
03:26PM 43.8325 -73.3697 196° South 386 444 19,000  Level Boston Center
03:27PM 43.7258 -73.4139 197° South 399 459 20,700 1,680 Climbing Boston Center
03:28PM 43.6044 -73.4636 197° South 411 473 22,400 1,560 Climbing Boston Center
03:29PM 43.4936 -73.5047 195° South 411 473 23,900 1,260 Climbing Boston Center
03:30PM 43.3828 -73.5486 196° South 416 479 25,000 1,080 Climbing Boston Center
03:31PM 43.2700 -73.5919 196° South 421 484 26,100 1,020 Climbing Boston Center
03:32PM 43.1569 -73.6383 197° South 421 484 27,100 900 Climbing Boston Center
03:33PM 43.0522 -73.6844 198° South 428 493 28,000 1,020 Climbing Boston Center
03:34PM 42.9369 -73.7306 196° South 435 501 29,200 960 Climbing Boston Center
03:35PM 42.8219 -73.7761 196° South 435 501 30,000 360 Climbing Boston Center
03:36PM 42.6961 -73.8272 197° South 435 501 30,000  Level Boston Center
03:37PM 42.5789 -73.8836 200° South 442 509 30,000  Level Boston Center
03:38PM 42.4572 -73.9372 198° South 447 514 30,000 -240 Level Boston Center
03:39PM 42.3336 -73.9903 198° South 458 527 29,600 -660 Descending Boston Center
03:40PM 42.2078 -74.0489 199° South 471 542 28,700 -720 Descending Boston Center
03:41PM 42.0819 -74.1017 197° South 476 548 28,200 -360 Descending Boston Center
03:42PM 41.9581 -74.1514 197° South 476 548 28,000 -120 Descending Boston Center
03:44PM 41.7183 -74.2503 197° South 477 549 28,000  Level New York Center
03:45PM 41.5981 -74.3050 199° South 472 543 28,000  Level New York Center
03:46PM 41.4717 -74.3564 197° South 454 522 28,000  Level New York Center
03:47PM 41.3472 -74.4081 197° South 454 522 28,000  Level New York Center
03:48PM 41.2250 -74.4564 197° South 454 522 28,000  Level New York Center
03:49PM 41.1047 -74.5050 197° South 454 522 28,000  Level New York Center
03:50PM 40.9883 -74.5589 199° South 454 522 28,000  Level New York Center
03:51PM 40.8817 -74.6353 208° Southwest 428 493 28,000  Level New York Center
03:52PM 40.8231 -74.7692 240° Southwest 411 473 28,000  Level New York Center
03:53PM 40.7622 -74.9053 239° Southwest 420 483 28,000  Level New York Center
03:54PM 40.7033 -75.0386 240° Southwest 426 490 28,000  Level New York Center
03:55PM 40.6397 -75.1769 239° Southwest 426 490 28,000 -600 Level New York Center
03:56PM 40.5806 -75.3097 240° Southwest 431 496 26,900 -1,380 Descending New York Center
03:57PM 40.5192 -75.4422 239° Southwest 431 496 25,400 -1,560 Descending New York Center
03:58PM 40.4578 -75.5717 238° Southwest 431 496 23,900 -1,500 Descending New York Center
03:59PM 40.4028 -75.6933 239° Southwest 431 496 22,400 -1,500 Descending New York Center
04:00PM 40.3453 -75.8172 239° Southwest 421 484 20,900 -1,200 Descending New York Center
04:01PM 40.2814 -75.9458 237° Southwest 416 479 20,000 -1,020 Descending New York Center
04:02PM 40.2189 -76.0853 240° Southwest 408 470 18,900 -1,080 Descending New York Center
04:03PM 40.1592 -76.2056 237° Southwest 408 470 17,900 -900 Descending New York Center
04:04PM 40.1033 -76.3289 239° Southwest 403 464 17,200 -600 Descending New York Center
04:05PM 40.0522 -76.4414 239° Southwest 398 458 16,800 -480 Descending New York Center
04:06PM 39.9917 -76.5719 239° Southwest 393 452 16,300 -720 Descending New York Center
04:07PM 39.9358 -76.6892 238° Southwest 388 447 15,500 -540 Descending New York Center
04:09PM 39.8167 -76.9333 238° Southwest 376 433 14,600 -600 Descending Potomac TRACON
04:10PM 39.7667 -77.0333 237° Southwest 344 396 13,600 -1,020 Descending Potomac TRACON
04:11PM 39.7333 -77.1333 247° West 311 358 12,600 -1,140 Descending Potomac TRACON
04:12PM 39.6833 -77.2167 232° Southwest 293 337 11,400 -1,440 Descending Potomac TRACON
04:13PM 39.6333 -77.3167 237° Southwest 267 307 9,600 -1,620 Descending Potomac TRACON
04:14PM 39.5833 -77.3500 207° Southwest 249 287 8,200 -1,680 Descending Potomac TRACON
04:15PM 39.5167 -77.4000 210° Southwest 244 281 6,500 -1,860 Descending Potomac TRACON
04:16PM 39.4500 -77.4333 201° Southwest 232 267 4,500 -1,740 Descending Potomac TRACON
04:17PM 39.4000 -77.4333 180° South 235 270 3,100 -840 Descending Potomac TRACON
04:18PM 39.3500 -77.4333 180° South 182 209 3,000 -120 Descending Potomac TRACON